Time;durP1;ratioP1;P1;durP2;ratioP2;P2;SDS_P1;SDS_P2;PMS_P1;PMS_P2;Temp;Humidity;BMP_temperature;BMP_pressure;BME280_temperature;BME280_humidity;BME280_pressure;Samples;Min_cycle;Max_cycle;Signal;HPM_P1;HPM_P2
2023/04/14 00:00:22;;;;;;;;;4.33;4.00;;;;;8.38;65.39;98706.31;5056070;28;46039;-79
2023/04/14 00:02:48;;;;;;;;;4.33;4.33;;;;;8.39;65.33;98708.03;5067843;28;45376;-79
2023/04/14 00:05:13;;;;;;;;;4.33;4.00;;;;;8.39;65.75;98709.81;5071425;28;45967;-78
2023/04/14 00:07:38;;;;;;;;;3.50;3.25;;;;;8.37;66.05;98715.13;5036200;28;45369;-79
2023/04/14 00:10:05;;;;;;;;;6.67;4.00;;;;;8.35;66.33;98714.34;5036326;28;46158;-79
2023/04/14 00:12:30;;;;;;;;;4.75;4.75;;;;;8.31;66.81;98710.06;5036043;28;45389;-79
2023/04/14 00:14:55;;;;;;;;;6.75;5.00;;;;;8.28;66.85;98715.44;5036127;28;45476;-79
2023/04/14 00:17:21;;;;;;;;;7.33;5.33;;;;;8.24;67.04;98720.84;5055732;28;45316;-79
2023/04/14 00:19:46;;;;;;;;;5.00;5.00;;;;;8.21;67.32;98716.56;5042096;28;46164;-79
2023/04/14 00:22:11;;;;;;;;;3.50;3.50;;;;;8.20;67.44;98719.28;5046153;28;45395;-78
2023/04/14 00:24:41;;;;;;;;;7.25;4.50;;;;;8.20;67.48;98717.50;5076535;28;45424;-79
2023/04/14 00:27:08;;;;;;;;;5.00;5.00;;;;;8.19;67.39;98714.94;5056418;28;45431;-78
2023/04/14 00:29:33;;;;;;;;;4.25;4.25;;;;;8.18;66.83;98711.44;5056177;28;45581;-78
2023/04/14 00:31:59;;;;;;;;;8.00;3.50;;;;;8.19;66.93;98712.31;5056630;28;45258;-78
2023/04/14 00:34:24;;;;;;;;;6.67;3.00;;;;;8.20;66.74;98701.75;5056407;28;45373;-78
2023/04/14 00:36:49;;;;;;;;;2.75;2.75;;;;;8.23;66.73;98706.00;5071465;28;45436;-78
2023/04/14 00:39:15;;;;;;;;;4.75;2.75;;;;;8.25;66.93;98702.41;5055610;28;45956;-78
2023/04/14 00:41:42;;;;;;;;;7.00;2.00;;;;;8.30;66.11;98705.72;5056405;28;45452;-78
2023/04/14 00:44:08;;;;;;;;;3.00;3.00;;;;;8.33;65.93;98705.66;5055223;28;45507;-79
2023/04/14 00:46:35;;;;;;;;;3.50;3.00;;;;;8.34;66.50;98704.75;5035488;28;45363;-78
2023/04/14 00:49:00;;;;;;;;;5.00;4.00;;;;;8.36;66.54;98702.91;5036016;28;45487;-78
2023/04/14 00:51:26;;;;;;;;;3.75;3.00;;;;;8.37;65.97;98701.16;5048204;28;45367;-78
2023/04/14 00:53:54;;;;;;;;;2.00;2.00;;;;;8.37;65.93;98702.00;5049914;28;45339;-79
2023/04/14 00:56:20;;;;;;;;;3.75;2.25;;;;;8.38;65.68;98706.31;5056029;28;45511;-79
2023/04/14 00:58:45;;;;;;;;;2.25;2.00;;;;;8.37;65.67;98707.25;5055513;28;45447;-78
2023/04/14 01:01:11;;;;;;;;;7.50;4.00;;;;;8.36;65.98;98707.31;5055726;28;45357;-78
2023/04/14 01:03:37;;;;;;;;;5.00;3.00;;;;;8.36;65.84;98707.31;5055861;28;45424;-78
2023/04/14 01:06:04;;;;;;;;;2.00;2.00;;;;;8.35;65.97;98702.97;5055818;28;45567;-78
2023/04/14 01:08:30;;;;;;;;;3.25;3.25;;;;;8.34;65.67;98706.50;5055817;28;46622;-79
2023/04/14 01:11:20;;;;;;;;;2.75;2.00;;;;;8.32;65.94;98697.84;5055641;28;45423;-78
2023/04/14 01:14:20;;;;;;;;;0.25;0.25;;;;;8.31;65.80;98696.94;5055575;28;45306;-79
2023/04/14 01:16:49;;;;;;;;;2.00;2.00;;;;;8.26;66.01;98695.41;5055103;28;45496;-78
2023/04/14 01:19:26;;;;;;;;;2.75;2.75;;;;;8.26;66.06;98693.63;5054414;28;45575;-78
2023/04/14 01:21:59;;;;;;;;;2.75;2.75;;;;;8.25;66.29;98696.31;5053717;28;45437;-78
2023/04/14 01:24:47;;;;;;;;;3.50;3.00;;;;;8.25;66.59;98696.31;5063811;27;45340;-78
2023/04/14 01:27:27;;;;;;;;;3.25;3.25;;;;;8.25;66.97;98697.16;5042331;28;45400;-79
2023/04/14 01:30:20;;;;;;;;;5.00;4.00;;;;;8.21;66.90;98686.84;5054634;28;45313;-78
2023/04/14 01:32:48;;;;;;;;;3.75;3.75;;;;;8.17;67.33;98693.97;5055165;28;45400;-78
2023/04/14 01:35:28;;;;;;;;;4.67;4.67;;;;;8.16;67.20;98701.91;5055108;28;45314;-79
2023/04/14 01:38:03;;;;;;;;;8.75;4.00;;;;;8.15;67.08;98700.19;5054996;28;45478;-78
2023/04/14 01:40:32;;;;;;;;;3.75;3.00;;;;;8.12;67.28;98695.91;5055214;28;45530;-78
2023/04/14 01:43:04;;;;;;;;;6.25;3.00;;;;;8.14;67.38;98695.88;5070509;28;45375;-79
2023/04/14 01:45:43;;;;;;;;;7.00;3.75;;;;;8.15;67.46;98702.81;5063188;28;45415;-79
2023/04/14 01:48:10;;;;;;;;;5.75;4.00;;;;;8.17;67.37;98701.00;5071127;27;45574;-78
2023/04/14 01:50:36;;;;;;;;;6.50;5.25;;;;;8.19;67.11;98693.94;5069962;28;47693;-78
2023/04/14 01:53:06;;;;;;;;;4.25;3.25;;;;;8.20;67.36;98693.03;5054705;28;45750;-79
2023/04/14 01:55:33;;;;;;;;;5.00;4.00;;;;;8.21;67.49;98702.59;5055084;28;45479;-78
2023/04/14 01:58:01;;;;;;;;;9.00;4.50;;;;;8.21;67.59;98699.97;5053372;28;45289;-78
2023/04/14 02:00:27;;;;;;;;;7.50;6.50;;;;;8.20;67.81;98704.38;5054100;28;45477;-78
2023/04/14 02:02:53;;;;;;;;;4.50;3.50;;;;;8.21;68.14;98707.88;5054778;28;45543;-78
2023/04/14 02:05:21;;;;;;;;;6.75;3.50;;;;;8.22;68.32;98709.53;5070134;28;45468;-78
2023/04/14 02:07:50;;;;;;;;;3.25;3.00;;;;;8.23;68.39;98701.59;5070244;28;45644;-78
2023/04/14 02:10:19;;;;;;;;;3.00;2.00;;;;;8.22;68.37;98712.16;5054614;28;45522;-78
2023/04/14 02:12:47;;;;;;;;;1.00;1.00;;;;;8.13;68.74;98712.53;5054864;28;45476;-80
2023/04/14 02:15:16;;;;;;;;;0.00;0.00;;;;;8.00;70.23;98715.59;5055124;28;45480;-81
2023/04/14 02:17:45;;;;;;;;;1.00;0.00;;;;;7.89;69.82;98722.13;5070123;28;45527;-79
2023/04/14 02:20:12;;;;;;;;;2.75;0.75;;;;;7.82;70.44;98720.66;5054197;28;45433;-79
2023/04/14 02:22:38;;;;;;;;;2.50;2.00;;;;;7.74;72.19;98720.06;5061149;28;45490;-79
2023/04/14 02:25:04;;;;;;;;;1.00;1.00;;;;;7.63;72.66;98708.19;5058205;27;45405;-79
2023/04/14 02:27:37;;;;;;;;;0.00;0.00;;;;;7.57;72.57;98710.13;5054849;28;45518;-80
2023/04/14 02:30:13;;;;;;;;;1.00;1.00;;;;;7.51;72.78;98713.00;5053078;28;47427;-79
2023/04/14 02:32:44;;;;;;;;;1.50;1.50;;;;;7.45;74.53;98721.06;5054592;28;45433;-80
2023/04/14 02:35:15;;;;;;;;;1.00;1.00;;;;;7.41;75.09;98715.06;5047881;28;45393;-80
2023/04/14 02:37:46;;;;;;;;;3.00;1.00;;;;;7.33;74.32;98717.97;5034316;28;45345;-79
2023/04/14 02:40:17;;;;;;;;;1.75;1.75;;;;;7.29;76.72;98725.97;5054256;28;46205;-79
2023/04/14 02:42:47;;;;;;;;;1.00;1.00;;;;;7.27;75.63;98725.16;5052370;28;45619;-79
2023/04/14 02:45:17;;;;;;;;;2.00;2.00;;;;;7.22;76.32;98727.91;5070231;28;45496;-79
2023/04/14 02:47:46;;;;;;;;;0.50;0.00;;;;;7.23;75.92;98728.78;5054360;28;45620;-79
2023/04/14 02:50:15;;;;;;;;;1.00;1.00;;;;;7.22;76.73;98733.16;5054202;28;45768;-80
2023/04/14 02:52:43;;;;;;;;;1.00;1.00;;;;;7.16;76.91;98725.53;5053910;28;45354;-80
2023/04/14 02:55:10;;;;;;;;;0.00;0.00;;;;;7.16;72.67;98722.03;5054718;28;45357;-79
2023/04/14 02:57:36;;;;;;;;;2.00;1.00;;;;;7.19;75.45;98721.94;5054052;28;45558;-79
2023/04/14 03:00:02;;;;;;;;;3.00;1.00;;;;;7.22;75.22;98725.31;5042832;28;46081;-79
2023/04/14 03:02:29;;;;;;;;;1.00;1.00;;;;;7.21;74.39;98718.34;5066980;28;45404;-79
2023/04/14 03:04:54;;;;;;;;;1.50;1.25;;;;;7.16;74.41;98709.78;5053685;28;45424;-79
2023/04/14 03:07:20;;;;;;;;;2.25;2.00;;;;;7.16;74.31;98711.56;5053768;28;45348;-79
2023/04/14 03:09:49;;;;;;;;;2.67;2.33;;;;;7.14;75.45;98724.72;5042663;28;45613;-79
2023/04/14 03:12:16;;;;;;;;;4.50;2.75;;;;;7.17;75.55;98724.63;5051432;28;45468;-79
2023/04/14 03:14:43;;;;;;;;;3.00;3.00;;;;;7.21;75.66;98727.97;5052096;28;45355;-79
2023/04/14 03:17:10;;;;;;;;;6.00;2.00;;;;;7.25;75.82;98724.34;5050280;28;45385;-79
2023/04/14 03:19:39;;;;;;;;;3.00;3.00;;;;;7.30;75.79;98723.28;5052257;28;46617;-79
2023/04/14 03:22:05;;;;;;;;;2.00;2.00;;;;;7.36;76.26;98724.88;5051565;28;45425;-79
2023/04/14 03:24:33;;;;;;;;;3.25;1.50;;;;;7.41;76.57;98727.31;5053238;28;45418;-79
2023/04/14 03:27:09;;;;;;;;;4.33;4.00;;;;;7.48;76.56;98723.59;5033849;28;45425;-79
2023/04/14 03:29:42;;;;;;;;;4.75;4.00;;;;;7.54;76.40;98726.00;5032495;28;45580;-79
2023/04/14 03:32:09;;;;;;;;;2.67;2.67;;;;;7.54;75.52;98721.59;5047879;28;45407;-79
2023/04/14 03:34:39;;;;;;;;;3.50;3.50;;;;;7.54;74.93;98724.22;5033012;28;45393;-79
2023/04/14 03:37:07;;;;;;;;;3.00;2.00;;;;;7.54;75.93;98720.78;5041988;28;45457;-79
2023/04/14 03:39:37;;;;;;;;;2.00;2.00;;;;;7.56;76.61;98725.03;5052926;28;45392;-79
2023/04/14 03:42:04;;;;;;;;;4.67;4.67;;;;;7.56;76.83;98719.78;5054792;28;45480;-79
2023/04/14 03:44:34;;;;;;;;;6.00;4.00;;;;;7.56;77.29;98725.03;5056765;28;45515;-79
2023/04/14 03:47:02;;;;;;;;;3.00;3.00;;;;;7.58;76.78;98723.22;5057137;28;45554;-79
2023/04/14 03:49:29;;;;;;;;;7.00;3.33;;;;;7.60;76.78;98725.78;5060285;28;46049;-79
2023/04/14 03:52:01;;;;;;;;;4.00;4.00;;;;;7.62;76.05;98722.19;5055551;28;45402;-79
2023/04/14 03:54:29;;;;;;;;;3.25;3.25;;;;;7.63;76.11;98734.41;5056877;28;45381;-79
2023/04/14 03:56:57;;;;;;;;;3.00;2.25;;;;;7.67;75.82;98733.41;5056488;28;45365;-79
2023/04/14 03:59:26;;;;;;;;;2.50;2.50;;;;;7.69;75.30;98726.34;5056527;28;46674;-79
2023/04/14 04:01:53;;;;;;;;;2.00;2.00;;;;;7.74;74.90;98735.78;5056726;28;45429;-79
2023/04/14 04:04:20;;;;;;;;;4.00;2.00;;;;;7.77;75.03;98735.69;5056759;28;45435;-80
2023/04/14 04:06:45;;;;;;;;;3.00;2.25;;;;;7.78;74.68;98738.25;5070401;27;45523;-79
2023/04/14 04:09:16;;;;;;;;;3.25;3.25;;;;;7.80;75.07;98733.81;5057141;28;45478;-80
2023/04/14 04:11:45;;;;;;;;;2.00;2.00;;;;;7.81;75.39;98739.94;5056797;28;45413;-79
2023/04/14 04:14:16;;;;;;;;;2.00;2.00;;;;;7.81;74.87;98727.66;5067953;28;45394;-79
2023/04/14 04:16:42;;;;;;;;;3.50;3.00;;;;;7.83;74.81;98731.09;5072109;28;45611;-80
2023/04/14 04:19:12;;;;;;;;;1.00;1.00;;;;;7.84;74.87;98734.59;5056312;28;45759;-80
2023/04/14 04:21:41;;;;;;;;;3.00;2.00;;;;;7.84;75.17;98732.81;5056146;28;45377;-80
2023/04/14 04:24:09;;;;;;;;;3.00;3.00;;;;;7.87;75.55;98734.47;5066599;28;45301;-80
2023/04/14 04:26:34;;;;;;;;;3.00;2.00;;;;;7.88;74.98;98733.53;5056018;28;45454;-79
2023/04/14 04:29:02;;;;;;;;;1.50;1.50;;;;;7.89;74.99;98733.47;5056577;28;45425;-80
2023/04/14 04:31:28;;;;;;;;;2.50;1.75;;;;;7.90;74.88;98727.31;5053874;28;45501;-80
2023/04/14 04:33:55;;;;;;;;;1.00;1.00;;;;;7.93;74.97;98735.09;5063128;28;45377;-79
2023/04/14 04:36:21;;;;;;;;;3.50;1.50;;;;;7.95;75.43;98742.91;5059171;27;45357;-80
2023/04/14 04:38:48;;;;;;;;;2.75;2.00;;;;;7.91;75.19;98744.78;5071474;28;47580;-81
2023/04/14 04:41:40;;;;;;;;;1.00;1.00;;;;;7.87;75.72;98748.47;5058922;28;45405;-80
2023/04/14 04:44:06;;;;;;;;;3.00;3.00;;;;;7.86;76.98;98749.38;5061111;28;45408;-80
2023/04/14 04:46:49;;;;;;;;;3.00;2.00;;;;;7.84;76.91;98743.31;5056083;28;45402;-81
2023/04/14 04:49:15;;;;;;;;;1.25;1.25;;;;;7.86;77.24;98749.38;5071605;28;46818;-80
2023/04/14 04:51:40;;;;;;;;;2.50;2.25;;;;;7.88;76.59;98747.50;5066660;28;45362;-80
2023/04/14 04:54:05;;;;;;;;;3.50;2.75;;;;;7.90;77.08;98744.84;5054962;28;45601;-80
2023/04/14 04:56:31;;;;;;;;;1.50;1.50;;;;;7.93;76.89;98744.75;5056120;28;45424;-80
2023/04/14 04:59:00;;;;;;;;;1.00;1.00;;;;;7.96;75.34;98745.50;5055695;28;46355;-81
2023/04/14 05:01:26;;;;;;;;;2.00;2.00;;;;;7.98;75.17;98748.94;5054477;28;45789;-80
2023/04/14 05:03:51;;;;;;;;;3.50;2.75;;;;;7.96;74.46;98737.63;5056029;28;45254;-80
2023/04/14 05:06:17;;;;;;;;;1.75;1.50;;;;;7.97;74.47;98741.09;5071166;28;45408;-80
2023/04/14 05:08:42;;;;;;;;;3.25;2.00;;;;;7.95;73.75;98738.53;5055565;28;45569;-80
2023/04/14 05:11:08;;;;;;;;;2.00;2.00;;;;;7.92;73.80;98741.25;5071243;28;45735;-80
2023/04/14 05:13:33;;;;;;;;;2.50;2.00;;;;;7.89;73.87;98738.72;5054962;28;45397;-80
2023/04/14 05:16:05;;;;;;;;;3.75;2.25;;;;;7.86;74.34;98740.63;5055478;28;45401;-80
2023/04/14 05:18:32;;;;;;;;;3.00;2.00;;;;;7.84;75.36;98747.69;5069718;28;47592;-81
2023/04/14 05:21:05;;;;;;;;;3.00;2.25;;;;;7.81;75.62;98750.44;5054872;28;45315;-80
2023/04/14 05:23:35;;;;;;;;;2.75;2.25;;;;;7.80;76.33;98751.34;5055075;28;45462;-81
2023/04/14 05:26:01;;;;;;;;;2.00;2.00;;;;;7.80;76.65;98746.09;5054750;28;45301;-80
2023/04/14 05:28:27;;;;;;;;;2.50;2.50;;;;;7.83;77.11;98746.00;5054364;28;45941;-80
2023/04/14 05:30:53;;;;;;;;;4.50;3.50;;;;;7.85;77.33;98744.16;5054785;28;45409;-80
2023/04/14 05:33:18;;;;;;;;;5.00;5.00;;;;;7.86;78.04;98743.25;5054770;28;45526;-80
2023/04/14 05:35:45;;;;;;;;;2.50;2.00;;;;;7.90;77.51;98737.81;5067071;28;45540;-80
2023/04/14 05:38:11;;;;;;;;;7.00;3.00;;;;;7.95;77.51;98749.03;5052031;28;45586;-80
2023/04/14 05:40:36;;;;;;;;;3.00;3.00;;;;;8.00;77.03;98754.97;5070007;28;45309;-80
2023/04/14 05:43:02;;;;;;;;;2.25;2.25;;;;;8.05;77.37;98760.03;5069903;28;45403;-80
2023/04/14 05:45:28;;;;;;;;;3.00;3.00;;;;;8.10;77.41;98758.13;5054834;28;45307;-80
2023/04/14 05:47:53;;;;;;;;;5.00;5.00;;;;;8.15;77.40;98748.31;5054508;28;45498;-80
2023/04/14 05:50:18;;;;;;;;;4.00;4.00;;;;;8.20;77.25;98754.28;5054436;27;45482;-80
2023/04/14 05:52:44;;;;;;;;;4.25;3.00;;;;;8.26;77.18;98753.16;5054128;28;45330;-80
2023/04/14 05:55:12;;;;;;;;;5.00;3.00;;;;;8.30;76.67;98754.78;5054583;28;45317;-80
2023/04/14 05:57:38;;;;;;;;;3.00;3.00;;;;;8.33;76.23;98752.06;5066384;28;46247;-80
2023/04/14 06:00:05;;;;;;;;;2.00;2.00;;;;;8.39;75.43;98751.81;5044932;28;45342;-80
2023/04/14 06:02:30;;;;;;;;;5.00;3.25;;;;;8.45;75.35;98746.34;5070028;28;45477;-80
2023/04/14 06:04:56;;;;;;;;;3.00;2.00;;;;;8.52;74.70;98745.22;5052170;28;45412;-80
2023/04/14 06:07:21;;;;;;;;;3.75;2.50;;;;;8.58;74.69;98747.59;5056309;28;46550;-80
2023/04/14 06:09:46;;;;;;;;;1.00;1.00;;;;;8.63;73.78;98744.81;5054407;28;45447;-80
2023/04/14 06:12:13;;;;;;;;;2.75;2.75;;;;;8.67;73.63;98736.75;5054306;28;45774;-80
2023/04/14 06:14:39;;;;;;;;;3.00;3.00;;;;;8.73;73.83;98740.91;5053987;28;45463;-80
2023/04/14 06:17:04;;;;;;;;;3.00;1.75;;;;;8.75;73.85;98744.31;5053372;28;46394;-80
2023/04/14 06:19:30;;;;;;;;;4.00;4.00;;;;;8.77;73.70;98733.75;5053730;28;45476;-80
2023/04/14 06:21:55;;;;;;;;;5.50;3.00;;;;;8.79;73.47;98732.78;5051922;28;45675;-80
2023/04/14 06:24:20;;;;;;;;;4.00;2.75;;;;;8.81;73.68;98738.84;5052651;28;45585;-80
2023/04/14 06:26:46;;;;;;;;;4.00;3.00;;;;;8.84;73.10;98732.63;5064207;28;47138;-81
2023/04/14 06:29:11;;;;;;;;;2.75;2.00;;;;;8.85;73.17;98731.69;5047732;28;45348;-81
2023/04/14 06:31:37;;;;;;;;;4.50;4.00;;;;;8.87;73.03;98727.25;5070585;27;45457;-81
2023/04/14 06:34:02;;;;;;;;;3.75;3.25;;;;;8.87;72.96;98728.09;5053197;28;45403;-81
2023/04/14 06:36:27;;;;;;;;;4.50;3.00;;;;;8.92;72.85;98733.16;5052438;28;46101;-81
2023/04/14 06:38:53;;;;;;;;;5.25;4.75;;;;;8.92;72.43;98726.13;5054183;28;45503;-82
2023/04/14 06:41:19;;;;;;;;;6.25;4.50;;;;;8.97;72.38;98725.94;5053855;28;45445;-82
2023/04/14 06:43:45;;;;;;;;;3.25;3.00;;;;;9.00;72.12;98721.44;5060972;28;45512;-82
2023/04/14 06:46:10;;;;;;;;;5.00;4.25;;;;;9.05;72.22;98716.81;5053463;28;45481;-81
2023/04/14 06:48:36;;;;;;;;;2.25;2.25;;;;;9.07;72.07;98716.75;5053725;28;45517;-82
2023/04/14 06:51:02;;;;;;;;;5.00;4.00;;;;;9.13;72.18;98716.53;5053064;28;45385;-82
2023/04/14 06:53:27;;;;;;;;;6.25;4.00;;;;;9.17;71.89;98712.00;5053637;28;45531;-84
2023/04/14 06:55:59;;;;;;;;;3.75;3.00;;;;;9.22;72.02;98704.75;5053151;28;46142;-83
2023/04/14 06:58:28;;;;;;;;;4.75;4.00;;;;;9.28;71.79;98708.00;5053334;28;45426;-83
2023/04/14 07:01:01;;;;;;;;;5.75;5.50;;;;;9.31;71.42;98705.25;5053771;28;45332;-83
2023/04/14 07:03:29;;;;;;;;;5.00;5.00;;;;;9.32;71.39;98701.69;5053765;28;45364;-83
2023/04/14 07:06:01;;;;;;;;;4.00;4.00;;;;;9.36;71.94;98708.56;5049415;28;47794;-83
2023/04/14 07:08:30;;;;;;;;;8.75;7.75;;;;;9.43;72.06;98702.09;5045986;28;45525;-83
2023/04/14 07:10:59;;;;;;;;;8.00;4.00;;;;;9.51;70.78;98706.19;5048470;28;45518;-83
2023/04/14 07:13:24;;;;;;;;;5.75;4.00;;;;;9.52;70.86;98698.22;5052387;28;45575;-82
2023/04/14 07:15:50;;;;;;;;;7.25;6.00;;;;;9.55;70.08;98708.59;5052104;28;45480;-83
2023/04/14 07:18:15;;;;;;;;;8.50;5.25;;;;;9.54;69.10;98708.69;5041213;28;45541;-83
2023/04/14 07:20:40;;;;;;;;;6.50;6.50;;;;;9.55;68.63;98718.31;5071446;27;45387;-84
2023/04/14 07:23:06;;;;;;;;;9.25;5.75;;;;;9.49;67.97;98711.50;5071719;27;45392;-83
2023/04/14 07:25:35;;;;;;;;;6.00;6.00;;;;;9.40;68.91;98702.22;5070762;28;47731;-83
2023/04/14 07:28:01;;;;;;;;;6.00;6.00;;;;;9.37;68.22;98698.88;5057222;28;45345;-84
2023/04/14 07:30:27;;;;;;;;;4.25;4.25;;;;;9.34;68.09;98701.63;5052767;28;45339;-84
2023/04/14 07:32:52;;;;;;;;;6.75;5.75;;;;;9.30;68.09;98693.00;5057450;28;45501;-83
2023/04/14 07:35:17;;;;;;;;;8.00;6.00;;;;;9.30;67.91;98692.16;5056647;28;45514;-84
2023/04/14 07:37:43;;;;;;;;;6.25;6.25;;;;;9.30;67.34;98697.41;5056510;28;45373;-84
2023/04/14 07:40:08;;;;;;;;;5.00;5.00;;;;;9.31;66.94;98692.09;5068677;28;45476;-84
2023/04/14 07:42:34;;;;;;;;;6.00;6.00;;;;;9.35;66.80;98698.09;5071685;28;45456;-83
2023/04/14 07:45:00;;;;;;;;;5.25;5.25;;;;;9.38;66.64;98690.06;5055928;28;46266;-83
2023/04/14 07:47:26;;;;;;;;;6.75;5.25;;;;;9.41;66.39;98689.91;5056180;28;45432;-83
2023/04/14 07:49:53;;;;;;;;;4.25;4.25;;;;;9.41;65.17;98690.78;5055771;28;45310;-84
2023/04/14 07:52:18;;;;;;;;;6.00;5.25;;;;;9.47;66.07;98688.81;5071831;28;46106;-83
2023/04/14 07:54:44;;;;;;;;;5.50;5.50;;;;;9.48;66.45;98698.41;5056175;28;45396;-84
2023/04/14 07:57:10;;;;;;;;;5.50;5.50;;;;;9.49;66.02;98695.72;5055982;28;45381;-83
2023/04/14 07:59:37;;;;;;;;;5.75;5.00;;;;;9.52;65.44;98695.59;5067390;28;45416;-84
2023/04/14 08:02:02;;;;;;;;;12.75;6.00;;;;;9.55;65.70;98697.25;5068868;28;45334;-84
2023/04/14 08:04:28;;;;;;;;;8.00;8.00;;;;;9.59;65.75;98697.03;5068758;28;47303;-83
2023/04/14 08:06:53;;;;;;;;;5.00;5.00;;;;;9.70;65.60;98696.59;5053501;28;46043;-83
2023/04/14 08:09:18;;;;;;;;;5.25;3.75;;;;;9.82;65.18;98696.03;5056070;28;45321;-83
2023/04/14 08:11:44;;;;;;;;;5.25;5.25;;;;;9.87;65.51;98691.44;5050150;28;45558;-83
2023/04/14 08:14:13;;;;;;;;;4.75;3.75;;;;;9.90;65.09;98686.00;5056203;28;46135;-83
2023/04/14 08:16:38;;;;;;;;;5.75;5.75;;;;;9.95;64.07;98684.03;5055778;28;45268;-84
2023/04/14 08:19:03;;;;;;;;;7.00;7.00;;;;;10.07;64.83;98691.38;5056051;28;45243;-83
2023/04/14 08:21:29;;;;;;;;;13.75;6.75;;;;;10.19;64.51;98690.03;5073289;28;45372;-83
2023/04/14 08:23:56;;;;;;;;;6.75;6.75;;;;;10.22;64.36;98681.16;5055433;28;45409;-83
2023/04/14 08:26:21;;;;;;;;;6.25;6.25;;;;;10.31;65.05;98683.34;5054416;28;45518;-84
2023/04/14 08:28:47;;;;;;;;;10.00;8.00;;;;;10.40;64.36;98678.47;5055211;28;45351;-83
2023/04/14 08:31:12;;;;;;;;;8.25;6.00;;;;;10.54;64.17;98677.00;5067957;28;45609;-83
2023/04/14 08:33:37;;;;;;;;;9.00;6.00;;;;;10.63;64.30;98668.66;5059771;28;46635;-83
2023/04/14 08:36:04;;;;;;;;;6.25;5.50;;;;;10.77;63.82;98671.47;5050584;28;45541;-83
2023/04/14 08:38:30;;;;;;;;;6.25;6.25;;;;;10.89;63.39;98672.69;5036513;28;45521;-83
2023/04/14 08:40:56;;;;;;;;;10.00;8.75;;;;;10.96;62.61;98666.19;5055403;28;45405;-83
2023/04/14 08:43:22;;;;;;;;;8.00;6.00;;;;;11.02;62.28;98673.81;5065217;28;47387;-83
2023/04/14 08:45:50;;;;;;;;;7.00;5.25;;;;;11.12;62.43;98675.03;5055671;28;45442;-83
2023/04/14 08:48:18;;;;;;;;;7.25;6.00;;;;;11.17;62.11;98662.50;5055846;28;45399;-83
2023/04/14 08:50:58;;;;;;;;;6.00;4.25;;;;;11.25;60.69;98656.81;5053530;28;45376;-83
2023/04/14 08:53:26;;;;;;;;;5.50;4.50;;;;;11.33;61.44;98649.38;5055634;28;45549;-83
2023/04/14 08:55:53;;;;;;;;;6.50;5.25;;;;;11.41;61.28;98644.53;5054922;28;45340;-83
2023/04/14 08:58:18;;;;;;;;;7.50;6.50;;;;;11.53;61.06;98646.56;5055477;28;45485;-83
2023/04/14 09:00:45;;;;;;;;;6.00;6.00;;;;;11.61;59.60;98639.09;5053497;28;45395;-83
2023/04/14 09:03:10;;;;;;;;;8.50;8.00;;;;;11.70;59.57;98638.63;5054304;28;46212;-83
2023/04/14 09:05:37;;;;;;;;;6.00;6.00;;;;;11.80;59.54;98639.88;5039396;28;45512;-83
2023/04/14 09:08:03;;;;;;;;;6.00;6.00;;;;;11.88;58.14;98637.72;5054183;28;45561;-83
2023/04/14 09:10:29;;;;;;;;;4.00;4.00;;;;;11.84;58.19;98637.94;5054406;28;45555;-83
2023/04/14 09:12:55;;;;;;;;;8.25;6.25;;;;;11.84;58.94;98640.59;5060416;27;47344;-82
2023/04/14 09:15:23;;;;;;;;;6.25;4.00;;;;;11.88;57.93;98639.50;5054045;28;45372;-82
2023/04/14 09:17:48;;;;;;;;;8.50;6.50;;;;;11.91;57.61;98631.38;5070765;28;45489;-82
2023/04/14 09:20:14;;;;;;;;;5.75;5.75;;;;;11.91;58.28;98638.44;5070254;28;45578;-82
2023/04/14 09:22:40;;;;;;;;;7.00;7.00;;;;;11.89;57.96;98635.91;5052080;28;45772;-81
2023/04/14 09:25:07;;;;;;;;;8.00;6.00;;;;;11.89;57.37;98630.63;5050614;28;45597;-81
2023/04/14 09:27:33;;;;;;;;;6.00;5.25;;;;;11.91;56.34;98623.44;5043792;28;45524;-80
2023/04/14 09:30:00;;;;;;;;;5.75;4.25;;;;;11.90;56.47;98619.09;5054563;28;45736;-80
2023/04/14 09:32:25;;;;;;;;;5.75;5.50;;;;;11.92;57.25;98611.97;5055423;28;46179;-81
2023/04/14 09:34:53;;;;;;;;;5.00;5.00;;;;;11.98;56.59;98608.13;5054693;28;45316;-81
2023/04/14 09:37:20;;;;;;;;;6.00;5.00;;;;;12.04;56.56;98600.75;5063612;28;45429;-81
2023/04/14 09:39:50;;;;;;;;;8.75;5.75;;;;;12.15;56.46;98595.72;5040090;28;45437;-81
2023/04/14 09:42:16;;;;;;;;;4.25;4.25;;;;;12.20;55.11;98596.34;5054396;28;46533;-82
2023/04/14 09:44:57;;;;;;;;;3.80;3.40;;;;;12.26;55.12;98599.56;5054503;28;45382;-82
2023/04/14 09:47:24;;;;;;;;;3.00;3.00;;;;;12.30;54.31;98587.88;5040538;28;45459;-82
2023/04/14 09:50:02;;;;;;;;;2.75;2.75;;;;;12.38;53.84;98593.59;5068792;28;45417;-82
2023/04/14 09:52:39;;;;;;;;;2.00;2.00;;;;;12.39;52.85;98588.25;5053615;28;45468;-82
2023/04/14 09:55:08;;;;;;;;;3.20;3.20;;;;;12.44;52.54;98596.75;5043093;28;45385;-82
2023/04/14 09:57:34;;;;;;;;;3.75;3.75;;;;;12.51;53.41;98586.69;5047270;28;45417;-82
2023/04/14 10:00:00;;;;;;;;;5.25;3.50;;;;;12.59;52.81;98584.44;5052372;28;45266;-82
2023/04/14 10:02:25;;;;;;;;;2.25;2.25;;;;;12.65;52.03;98580.59;5052779;28;45972;-82
2023/04/14 10:05:05;;;;;;;;;5.00;3.00;;;;;12.77;52.23;98569.31;5051507;28;45553;-82
2023/04/14 10:07:30;;;;;;;;;4.00;3.50;;;;;12.85;53.11;98567.94;5038294;28;45420;-82
2023/04/14 10:09:56;;;;;;;;;4.50;3.75;;;;;12.87;51.45;98565.22;5052682;28;45478;-82
2023/04/14 10:12:21;;;;;;;;;4.00;4.00;;;;;12.89;50.35;98550.13;5064183;27;47761;-82
2023/04/14 10:14:47;;;;;;;;;4.25;3.00;;;;;12.85;49.90;98556.50;5038783;28;45575;-81
2023/04/14 10:17:12;;;;;;;;;2.00;2.00;;;;;12.84;49.83;98555.66;5051223;28;45387;-81
2023/04/14 10:19:38;;;;;;;;;2.50;2.25;;;;;12.78;52.55;98550.72;5052382;28;45385;-81
2023/04/14 10:22:06;;;;;;;;;4.00;4.00;;;;;12.75;51.50;98550.03;5052198;28;45538;-81
2023/04/14 10:24:32;;;;;;;;;3.20;3.00;;;;;12.75;49.42;98540.31;5067475;28;45357;-81
2023/04/14 10:27:01;;;;;;;;;2.75;2.75;;;;;12.89;48.89;98540.38;5067950;28;45369;-81
2023/04/14 10:29:27;;;;;;;;;2.00;2.00;;;;;12.97;48.25;98539.06;5052747;28;45406;-81
2023/04/14 10:32:04;;;;;;;;;3.00;3.00;;;;;13.01;46.96;98525.56;5052540;28;46181;-81
2023/04/14 10:34:31;;;;;;;;;1.20;1.20;;;;;13.13;48.84;98524.81;5048799;28;45341;-80
2023/04/14 10:37:14;;;;;;;;;3.00;3.00;;;;;13.29;47.81;98516.84;5051292;28;45461;-80
2023/04/14 10:39:39;;;;;;;;;3.00;2.25;;;;;13.42;46.46;98517.78;5050994;28;45553;-81
2023/04/14 10:42:05;;;;;;;;;5.75;2.75;;;;;13.55;46.30;98509.97;5061126;28;46719;-81
2023/04/14 10:44:33;;;;;;;;;2.00;1.25;;;;;13.72;47.14;98511.56;5052320;28;45340;-80
2023/04/14 10:47:03;;;;;;;;;6.25;2.75;;;;;13.87;45.31;98506.16;5052455;28;45453;-81
2023/04/14 10:49:31;;;;;;;;;2.00;2.00;;;;;14.01;46.64;98499.97;5053549;28;45394;-81
2023/04/14 10:52:02;;;;;;;;;5.00;3.00;;;;;14.17;46.91;98503.34;5051289;28;46066;-80
2023/04/14 10:54:27;;;;;;;;;3.50;2.00;;;;;14.39;47.70;98497.50;5012061;28;1168126;-81
2023/04/14 10:57:11;;;;;;;;;4.00;3.00;;;;;14.61;47.40;98489.84;5054198;28;45937;-81
2023/04/14 10:59:46;;;;;;;;;5.25;4.25;;;;;14.75;45.89;98490.72;5048492;28;45461;-80
2023/04/14 11:02:30;;;;;;;;;3.25;3.00;;;;;14.79;42.95;98494.88;5048222;28;45580;-81
2023/04/14 11:05:07;;;;;;;;;3.00;2.00;;;;;14.69;42.97;98480.53;5068238;28;45458;-81
2023/04/14 11:07:43;;;;;;;;;1.25;1.00;;;;;14.65;43.65;98483.38;5040296;28;45411;-80
2023/04/14 11:10:23;;;;;;;;;2.00;1.00;;;;;14.83;43.00;98478.66;5053451;28;45357;-81
2023/04/14 11:13:02;;;;;;;;;2.00;2.00;;;;;15.03;42.73;98477.28;5061694;28;46892;-80
2023/04/14 11:15:56;;;;;;;;;1.40;1.40;;;;;15.24;43.24;98472.31;5053426;28;45380;-81
2023/04/14 11:18:27;;;;;;;;;2.50;2.50;;;;;15.51;43.89;98459.75;5053254;28;45375;-80
2023/04/14 11:20:53;;;;;;;;;3.00;1.25;;;;;15.69;41.73;98466.44;5065477;28;45535;-80
2023/04/14 11:23:26;;;;;;;;;2.50;2.00;;;;;15.76;41.36;98460.69;5049028;28;46199;-81
2023/04/14 11:25:52;;;;;;;;;3.20;2.00;;;;;15.86;42.00;98454.59;5053371;28;45596;-81
2023/04/14 11:28:31;;;;;;;;;3.00;3.00;;;;;15.90;39.97;98456.09;5053337;28;45442;-80
2023/04/14 11:30:58;;;;;;;;;3.25;3.25;;;;;15.85;40.97;98454.72;5068590;28;45509;-81
2023/04/14 11:33:27;;;;;;;;;4.20;2.40;;;;;15.85;42.42;98444.09;5051870;28;48079;-81
2023/04/14 11:35:53;;;;;;;;;0.80;0.00;;;;;15.98;43.34;98442.22;5051695;28;45619;-82
2023/04/14 11:38:19;;;;;;;;;2.80;2.20;;;;;16.09;41.72;98433.50;5052037;28;45446;-81
2023/04/14 11:40:49;;;;;;;;;1.00;1.00;;;;;16.06;40.45;98437.22;5060042;28;45646;-81
2023/04/14 11:43:14;;;;;;;;;2.60;1.80;;;;;15.96;42.31;98428.19;5045695;28;46178;-81